Meteo Giornale » Osservazioni meteo Italia » Gioia Del Colle

ore: 08:55 - Osservazioni Meteo Gioia Del Colle
Lat. 40° 46' N Lon. 16° 56' E Alt. 345 metri s.l.m.

molto_nuvoloso Europe/Rome

13 °C

Molto Nuvoloso

Temp. 24 Ore

11 °C

16 °C

Nord

5.5 Km/h

Dew point 12 °C

Umidità 93 %

Visibilità  7 Km

Il sole sorge alle ore 05:55

Il sole tramonta alle ore 18:04

Data e Ora Cielo e Fenomeni T °C DP °C Um. % Pres. hPa Vis. km Vento km/h
Oggi h: 08:55 molto_nuvoloso Molto Nuvoloso 13 12 93 1015 7 N 5.5
Oggi h: 07:55 molto_nuvoloso Molto Nuvoloso 12 11 93 1015 6 E 9.3
Oggi h: 06:55 foschia Foschia 11 11 100 1015 4 N 5.5
Oggi h: 05:55 foschia Foschia 11 11 100 1015 4 N 1.8
Oggi h: 04:55 foschia Foschia 11 11 100 1015 2 N 3.7
Oggi h: 03:55 foschia Foschia 11 11 100 1014 2 S/SE 9.3
Oggi h: 02:55 foschia Foschia 11 11 100 1014 2 S/SE 11.1
Oggi h: 01:55 foschia Foschia 11 11 100 1015 3 S 11.1
Oggi h: 00:55 foschia Foschia 11 11 100 1015 4 S 16.7
Ieri h: 23:55 foschia Foschia 11 11 100 1014 4 S/SE 16.7
Ieri h: 22:55 foschia Foschia 12 12 100 1014 5 S/SE 25.9
Ieri h: 21:55 foschia Foschia 12 12 100 1014 4 S/SE 25.9
Ieri h: 20:55 foschia Foschia 12 12 100 1014 4 S/SE 20.3
Ieri h: 19:55 foschia Foschia 12 12 100 1013 5 S/SE 24
Ieri h: 18:55 molto_nuvoloso Molto Nuvoloso 12 12 100 1013 6 S/SE 16.7
Ieri h: 16:55 nuvoloso Nuvoloso 13 11 87 1012 8 S 31.5
Ieri h: 15:55 nuvoloso Nuvoloso 14 11 82 1012 10 S/SE 31.5
Ieri h: 14:55 poco_nuvoloso Poco Nuvoloso 15 10 72 1012 10 S/SE 33.3
Ieri h: 13:55 poco_nuvoloso Poco Nuvoloso 15 10 72 1013 10 S/SE 29.6
Ieri h: 12:55 nuvoloso Nuvoloso 16 10 67 1013 10 S/SE 27.8
Ieri h: 11:55 nuvoloso Nuvoloso 15 9 67 1013 10 S 22.2
Ieri h: 10:55 nuvoloso Nuvoloso 14 10 76 1013 8 S/SE 22.2
Ieri h: 08:55 foschia Foschia 12 12 100 1013 5 S 22.2